Time;durP1;ratioP1;P1;durP2;ratioP2;P2;SDS_P1;SDS_P2;PMS_P1;PMS_P2;Temp;Humidity;BMP_temperature;BMP_pressure;BME280_temperature;BME280_humidity;BME280_pressure;Samples;Min_cycle;Max_cycle;Signal;HPM_P1;HPM_P2
2021/06/29 00:00:07;;;;;;;4.00;3.15;;;18.80;82.30;;;;;;5022035;28;20033;-74
2021/06/29 00:02:33;;;;;;;3.23;3.00;;;18.80;82.20;;;;;;5020187;28;20043;-74
2021/06/29 00:04:58;;;;;;;2.90;2.67;;;18.80;82.30;;;;;;5021059;28;20280;-74
2021/06/29 00:07:24;;;;;;;4.25;2.90;;;18.80;82.10;;;;;;5022686;28;20068;-73
2021/06/29 00:09:50;;;;;;;4.78;2.90;;;18.80;82.30;;;;;;5022767;28;20075;-74
2021/06/29 00:12:16;;;;;;;6.15;3.25;;;18.80;82.30;;;;;;5024236;28;20476;-74
2021/06/29 00:14:44;;;;;;;3.47;3.03;;;18.80;82.20;;;;;;5027592;28;20033;-73
2021/06/29 00:17:10;;;;;;;3.67;2.88;;;18.80;82.80;;;;;;5028765;28;20116;-74
2021/06/29 00:19:36;;;;;;;6.32;3.15;;;18.70;82.80;;;;;;5023986;28;20033;-74
2021/06/29 00:22:02;;;;;;;3.13;2.70;;;18.70;83.10;;;;;;5023621;28;20052;-74
2021/06/29 00:24:27;;;;;;;3.25;2.95;;;18.70;82.60;;;;;;5027096;28;20060;-74
2021/06/29 00:26:53;;;;;;;5.18;3.08;;;18.70;82.60;;;;;;5024902;28;20038;-75
2021/06/29 00:29:19;;;;;;;3.85;3.05;;;18.70;82.50;;;;;;5025980;28;20476;-74
2021/06/29 00:31:44;;;;;;;3.13;2.85;;;18.70;82.70;;;;;;5023685;28;20139;-74
2021/06/29 00:34:10;;;;;;;3.10;2.80;;;18.80;82.60;;;;;;5031226;28;20504;-74
2021/06/29 00:36:36;;;;;;;3.25;2.80;;;18.70;82.60;;;;;;5026680;28;20026;-74
2021/06/29 00:39:04;;;;;;;4.13;3.05;;;18.80;82.70;;;;;;5028959;28;20488;-74
2021/06/29 00:41:29;;;;;;;4.88;3.10;;;18.80;82.60;;;;;;5030022;28;20043;-74
2021/06/29 00:43:55;;;;;;;3.90;2.80;;;18.70;82.60;;;;;;5030176;28;20030;-74
2021/06/29 00:46:21;;;;;;;3.80;2.60;;;18.70;83.10;;;;;;5027619;28;20100;-73
2021/06/29 00:48:48;;;;;;;4.30;3.00;;;18.70;83.10;;;;;;5026139;28;20038;-74
2021/06/29 00:51:16;;;;;;;3.90;3.00;;;18.70;83.10;;;;;;5022231;28;20431;-74
2021/06/29 00:53:46;;;;;;;3.08;2.70;;;18.80;82.50;;;;;;5024656;28;20044;-74
2021/06/29 00:56:19;;;;;;;3.28;2.95;;;18.80;82.90;;;;;;5023525;28;20527;-74
2021/06/29 00:58:46;;;;;;;2.90;2.70;;;18.70;82.80;;;;;;5022394;28;20036;-73
2021/06/29 01:01:12;;;;;;;3.53;2.67;;;18.70;82.80;;;;;;5020250;28;20034;-74
2021/06/29 01:03:39;;;;;;;2.90;2.70;;;18.70;82.90;;;;;;5020888;28;20400;-74
2021/06/29 01:06:09;;;;;;;3.83;2.75;;;18.70;82.90;;;;;;5024793;28;20026;-74
2021/06/29 01:08:35;;;;;;;2.90;2.70;;;18.70;82.60;;;;;;5028064;28;20036;-74
2021/06/29 01:11:01;;;;;;;3.03;2.53;;;18.70;82.60;;;;;;5028061;28;20037;-74
2021/06/29 01:13:39;;;;;;;2.88;2.58;;;18.70;82.80;;;;;;5026350;28;20056;-74
2021/06/29 01:16:06;;;;;;;3.28;2.97;;;18.70;82.40;;;;;;5022152;28;20500;-74
2021/06/29 01:18:40;;;;;;;2.58;2.38;;;18.70;83.10;;;;;;5019733;28;20088;-75
2021/06/29 01:21:11;;;;;;;4.00;2.65;;;18.60;83.20;;;;;;5023619;28;20030;-74
2021/06/29 01:23:38;;;;;;;2.80;2.50;;;18.50;83.20;;;;;;5029972;28;20044;-74
2021/06/29 01:26:09;;;;;;;2.70;2.40;;;18.60;83.00;;;;;;5027414;28;20103;-74
2021/06/29 01:29:02;;;;;;;6.43;2.65;;;18.60;82.60;;;;;;5027733;28;20021;-74
2021/06/29 01:31:23;;;;;;;3.67;2.58;;;18.60;83.00;;;;;;5023310;28;20115;-74
2021/06/29 01:33:49;;;;;;;2.80;2.55;;;18.60;83.00;;;;;;5030109;28;20036;-75
2021/06/29 01:36:17;;;;;;;2.90;2.70;;;18.50;83.00;;;;;;5022684;28;20190;-74
2021/06/29 01:38:44;;;;;;;4.90;2.50;;;18.50;83.30;;;;;;5016249;28;20021;-73
2021/06/29 01:41:12;;;;;;;4.13;2.97;;;18.50;83.40;;;;;;5025990;28;20485;-74
2021/06/29 01:43:45;;;;;;;2.85;2.65;;;18.50;83.40;;;;;;5021649;28;20034;-74
2021/06/29 01:46:11;;;;;;;4.90;3.17;;;18.50;83.70;;;;;;5024075;28;20061;-74
2021/06/29 01:48:42;;;;;;;5.15;2.97;;;18.50;83.70;;;;;;5022681;28;20071;-74
2021/06/29 01:51:08;;;;;;;5.00;3.22;;;18.40;83.70;;;;;;5022959;28;20501;-74
2021/06/29 01:53:33;;;;;;;4.30;3.13;;;18.40;83.80;;;;;;5014642;28;20037;-74
2021/06/29 01:55:59;;;;;;;6.78;3.40;;;18.50;84.00;;;;;;5022351;28;20061;-74
2021/06/29 01:58:27;;;;;;;4.40;3.30;;;18.50;84.30;;;;;;5019383;28;20057;-74
2021/06/29 02:00:53;;;;;;;3.70;3.40;;;18.40;84.20;;;;;;5016727;28;20033;-73
2021/06/29 02:03:19;;;;;;;4.10;3.22;;;18.40;84.70;;;;;;5021546;28;20080;-74
2021/06/29 02:05:45;;;;;;;3.25;2.95;;;18.40;84.50;;;;;;5023231;28;20498;-74
2021/06/29 02:08:10;;;;;;;3.10;2.85;;;18.40;84.60;;;;;;5020434;28;20393;-74
2021/06/29 02:10:36;;;;;;;3.38;3.05;;;18.40;84.50;;;;;;5025330;28;20022;-74
2021/06/29 02:13:02;;;;;;;4.10;3.05;;;18.30;84.80;;;;;;5024688;28;20493;-74
2021/06/29 02:15:28;;;;;;;4.47;3.03;;;18.30;85.00;;;;;;5020737;28;20523;-73
2021/06/29 02:17:54;;;;;;;3.67;2.88;;;18.30;85.10;;;;;;5020275;28;20029;-73
2021/06/29 02:20:19;;;;;;;3.65;3.35;;;18.30;85.00;;;;;;5021130;28;20116;-73
2021/06/29 02:22:46;;;;;;;3.65;2.92;;;18.30;85.10;;;;;;5024749;28;20056;-74
2021/06/29 02:25:12;;;;;;;4.05;3.03;;;18.30;85.20;;;;;;5022638;28;20036;-73
2021/06/29 02:27:39;;;;;;;3.50;3.15;;;18.20;85.00;;;;;;5019243;28;20025;-73
2021/06/29 02:30:06;;;;;;;3.45;2.90;;;18.20;85.00;;;;;;5022871;28;20042;-73
2021/06/29 02:32:31;;;;;;;3.45;2.83;;;18.20;85.00;;;;;;5018919;28;20033;-74
2021/06/29 02:34:57;;;;;;;4.03;3.25;;;18.20;85.20;;;;;;5019109;28;20592;-74
2021/06/29 02:37:22;;;;;;;5.03;3.03;;;18.20;85.20;;;;;;5023073;28;20060;-74
2021/06/29 02:39:48;;;;;;;3.90;3.03;;;18.20;85.80;;;;;;5021854;28;20029;-74
2021/06/29 02:42:14;;;;;;;3.00;2.70;;;18.10;85.50;;;;;;5025827;28;20171;-74
2021/06/29 02:44:42;;;;;;;3.10;2.78;;;18.10;85.70;;;;;;5026292;28;20072;-74
2021/06/29 02:47:08;;;;;;;3.45;3.10;;;18.10;85.40;;;;;;5025322;28;20068;-74
2021/06/29 02:49:33;;;;;;;4.97;2.72;;;18.20;85.50;;;;;;5018846;28;20037;-74
2021/06/29 02:51:59;;;;;;;4.50;3.10;;;18.10;85.20;;;;;;5021126;28;20025;-74
2021/06/29 02:54:25;;;;;;;3.60;3.03;;;18.10;85.10;;;;;;5019536;28;20112;-74
2021/06/29 02:56:50;;;;;;;3.08;2.78;;;18.10;85.70;;;;;;5014739;28;20113;-73
2021/06/29 02:59:16;;;;;;;3.00;2.58;;;18.10;86.10;;;;;;5022623;28;20025;-74
2021/06/29 03:01:43;;;;;;;5.13;2.63;;;18.10;85.80;;;;;;5018807;28;20037;-74
2021/06/29 03:04:09;;;;;;;2.80;2.55;;;18.10;87.20;;;;;;5023919;28;20657;-74
2021/06/29 03:06:35;;;;;;;2.90;2.70;;;18.10;86.00;;;;;;5021090;28;20025;-74
2021/06/29 03:09:03;;;;;;;3.00;2.78;;;18.10;86.00;;;;;;5023659;28;20121;-74
2021/06/29 03:11:29;;;;;;;3.03;2.72;;;18.10;85.70;;;;;;5022838;28;20033;-74
2021/06/29 03:13:55;;;;;;;3.30;2.85;;;18.00;85.70;;;;;;5025481;28;20120;-73
2021/06/29 03:16:21;;;;;;;3.25;2.95;;;18.10;85.70;;;;;;5023853;28;20314;-74
2021/06/29 03:18:47;;;;;;;3.20;2.70;;;18.00;86.00;;;;;;5026638;28;20623;-74
2021/06/29 03:21:13;;;;;;;3.38;3.10;;;18.10;86.00;;;;;;5022972;28;20033;-74
2021/06/29 03:23:39;;;;;;;4.72;2.90;;;18.10;85.80;;;;;;5021483;28;20024;-74
2021/06/29 03:26:06;;;;;;;3.75;2.60;;;18.10;85.50;;;;;;5019849;28;20026;-74
2021/06/29 03:28:32;;;;;;;4.78;2.95;;;18.10;85.30;;;;;;5016511;28;20396;-74
2021/06/29 03:30:58;;;;;;;5.38;3.20;;;18.10;86.00;;;;;;5017203;28;20042;-73
2021/06/29 03:33:23;;;;;;;3.28;2.97;;;18.00;86.10;;;;;;5024796;28;20042;-75
2021/06/29 03:35:49;;;;;;;3.30;3.00;;;18.00;86.10;;;;;;5021122;28;20037;-74
2021/06/29 03:38:15;;;;;;;4.03;3.63;;;18.10;87.10;;;;;;5021275;28;20116;-73
2021/06/29 03:40:40;;;;;;;3.83;2.90;;;18.00;86.30;;;;;;5023053;28;20025;-74
2021/06/29 03:43:06;;;;;;;3.10;2.80;;;18.00;86.90;;;;;;5021496;28;20030;-74
2021/06/29 03:45:32;;;;;;;3.15;2.83;;;18.00;85.90;;;;;;5020430;28;20053;-73
2021/06/29 03:47:58;;;;;;;5.38;3.20;;;18.10;86.20;;;;;;5024918;28;20025;-75
2021/06/29 03:50:26;;;;;;;3.88;3.47;;;18.10;86.50;;;;;;5025122;28;20632;-74
2021/06/29 03:52:53;;;;;;;4.15;3.72;;;18.10;86.20;;;;;;5022239;28;20033;-74
2021/06/29 03:55:18;;;;;;;3.38;3.08;;;18.10;86.40;;;;;;5019932;28;20478;-74
2021/06/29 03:57:44;;;;;;;3.85;3.55;;;18.10;86.10;;;;;;5024987;28;20034;-74
2021/06/29 04:00:10;;;;;;;4.18;2.95;;;18.10;86.00;;;;;;5024931;28;20036;-74
2021/06/29 04:02:37;;;;;;;3.60;3.30;;;18.10;86.10;;;;;;5022582;28;20026;-74
2021/06/29 04:05:07;;;;;;;4.20;3.55;;;18.10;85.80;;;;;;5026145;28;20025;-74
2021/06/29 04:07:34;;;;;;;3.97;3.50;;;18.10;86.40;;;;;;5025669;28;20068;-74
2021/06/29 04:10:01;;;;;;;10.93;3.50;;;18.10;86.60;;;;;;5018831;28;20425;-74
2021/06/29 04:12:27;;;;;;;3.45;3.13;;;18.00;86.80;;;;;;5024743;28;20065;-73
2021/06/29 04:14:53;;;;;;;4.05;3.40;;;18.10;86.80;;;;;;5024725;28;20107;-74
2021/06/29 04:17:18;;;;;;;4.32;3.30;;;18.00;86.70;;;;;;5023683;28;20614;-74
2021/06/29 04:19:44;;;;;;;4.47;4.07;;;18.10;86.90;;;;;;5026272;28;20135;-74
2021/06/29 04:22:10;;;;;;;4.25;3.10;;;18.10;87.00;;;;;;5027079;28;20026;-74
2021/06/29 04:24:36;;;;;;;3.35;2.97;;;18.00;87.00;;;;;;5033565;28;20036;-74
2021/06/29 04:27:03;;;;;;;2.97;2.70;;;18.00;86.90;;;;;;5025231;28;20034;-74
2021/06/29 04:29:29;;;;;;;3.13;2.70;;;18.00;86.70;;;;;;5024115;28;20503;-73
2021/06/29 04:31:54;;;;;;;3.25;3.05;;;18.00;86.80;;;;;;5029552;28;20037;-74
2021/06/29 04:34:20;;;;;;;2.97;2.78;;;18.00;87.40;;;;;;5030081;28;20044;-74
2021/06/29 04:36:46;;;;;;;3.38;3.00;;;18.00;86.90;;;;;;5027759;28;20037;-74
2021/06/29 04:39:12;;;;;;;5.95;3.47;;;18.00;86.70;;;;;;5027180;28;20044;-74
2021/06/29 04:41:38;;;;;;;3.88;3.38;;;18.00;86.90;;;;;;5028939;28;20032;-74
2021/06/29 04:44:04;;;;;;;4.30;3.15;;;18.00;86.80;;;;;;5027378;28;20286;-74
2021/06/29 04:46:30;;;;;;;4.22;3.20;;;18.00;86.80;;;;;;5029632;28;20400;-74
2021/06/29 04:48:57;;;;;;;5.72;3.58;;;18.00;86.80;;;;;;5027311;28;20524;-74
2021/06/29 04:51:23;;;;;;;4.00;3.53;;;18.00;87.00;;;;;;5019684;28;20076;-74
2021/06/29 04:53:48;;;;;;;3.42;3.15;;;18.00;87.10;;;;;;5015330;28;20029;-74
2021/06/29 04:56:17;;;;;;;3.78;3.15;;;18.00;87.10;;;;;;5025348;28;20037;-74
2021/06/29 04:58:53;;;;;;;4.13;3.17;;;18.00;87.10;;;;;;5024668;28;20107;-74
2021/06/29 05:01:19;;;;;;;3.72;3.33;;;18.00;86.50;;;;;;5023288;28;20041;-74
2021/06/29 05:03:45;;;;;;;4.70;3.67;;;18.00;87.00;;;;;;5021098;28;20037;-74
2021/06/29 05:06:11;;;;;;;3.83;3.42;;;18.00;87.50;;;;;;5014962;28;20440;-74
2021/06/29 05:08:37;;;;;;;3.42;3.10;;;18.00;87.20;;;;;;5025820;28;20033;-74
2021/06/29 05:11:02;;;;;;;4.57;3.38;;;18.00;87.00;;;;;;5025912;28;20442;-74
2021/06/29 05:13:28;;;;;;;3.28;2.97;;;18.00;88.00;;;;;;5032666;28;20447;-74
2021/06/29 05:15:54;;;;;;;5.43;3.30;;;18.00;87.50;;;;;;5025332;28;20397;-74
2021/06/29 05:18:20;;;;;;;4.22;3.70;;;17.90;87.70;;;;;;5019508;28;20048;-74
2021/06/29 05:20:45;;;;;;;4.47;3.20;;;18.00;87.30;;;;;;5026433;28;20030;-74
2021/06/29 05:23:11;;;;;;;3.67;3.38;;;18.00;87.60;;;;;;5026158;28;20041;-74
2021/06/29 05:25:37;;;;;;;3.25;3.05;;;18.00;87.20;;;;;;5024132;28;20024;-74
2021/06/29 05:28:03;;;;;;;5.50;3.30;;;18.00;87.00;;;;;;5020398;28;20025;-75
2021/06/29 05:30:29;;;;;;;3.55;3.25;;;18.10;87.10;;;;;;5019102;28;20120;-74
2021/06/29 05:32:55;;;;;;;3.33;3.03;;;18.10;87.30;;;;;;5020814;28;20033;-74
2021/06/29 05:35:21;;;;;;;4.63;2.97;;;18.10;87.40;;;;;;5028176;28;20037;-74
2021/06/29 05:37:46;;;;;;;3.70;3.40;;;18.10;87.10;;;;;;5028925;28;20032;-74
2021/06/29 05:40:13;;;;;;;3.60;3.30;;;18.00;87.70;;;;;;5025458;28;20026;-74
2021/06/29 05:42:39;;;;;;;3.40;3.10;;;18.10;87.50;;;;;;5025036;28;20021;-74
2021/06/29 05:45:06;;;;;;;4.30;3.17;;;18.00;87.10;;;;;;5021075;28;20115;-74
2021/06/29 05:47:34;;;;;;;3.95;3.65;;;18.00;87.80;;;;;;5027504;28;20041;-75
2021/06/29 05:50:00;;;;;;;3.50;3.20;;;18.00;88.20;;;;;;5027696;28;20029;-74
2021/06/29 05:52:25;;;;;;;3.17;2.85;;;18.10;87.60;;;;;;5025776;28;20486;-74
2021/06/29 05:54:52;;;;;;;3.05;2.67;;;18.10;87.90;;;;;;5024976;28;20117;-73
2021/06/29 05:57:17;;;;;;;2.85;2.65;;;18.10;87.00;;;;;;5020125;28;20053;-73
2021/06/29 05:59:43;;;;;;;3.92;3.00;;;18.20;86.70;;;;;;5028618;28;20488;-73
2021/06/29 06:02:10;;;;;;;3.38;3.08;;;18.30;87.30;;;;;;5026776;28;20100;-74
2021/06/29 06:04:36;;;;;;;2.70;2.50;;;18.30;86.50;;;;;;5021774;28;20065;-74
2021/06/29 06:07:03;;;;;;;2.72;2.53;;;18.30;85.60;;;;;;5026414;28;20034;-74
2021/06/29 06:09:28;;;;;;;2.60;2.40;;;18.30;85.50;;;;;;5025982;28;20029;-74
2021/06/29 06:11:54;;;;;;;2.55;2.35;;;18.30;84.90;;;;;;5018487;28;20713;-74
2021/06/29 06:14:20;;;;;;;2.78;2.58;;;18.20;85.60;;;;;;5023464;28;20072;-74
2021/06/29 06:16:46;;;;;;;2.55;2.35;;;18.20;84.20;;;;;;5026451;28;20041;-74
2021/06/29 06:19:11;;;;;;;2.83;2.63;;;18.20;84.30;;;;;;5021907;28;20030;-73
2021/06/29 06:21:37;;;;;;;2.72;2.35;;;18.10;84.00;;;;;;5029483;28;20036;-74
2021/06/29 06:24:03;;;;;;;6.43;2.78;;;18.20;84.30;;;;;;5030139;28;20035;-73
2021/06/29 06:26:28;;;;;;;2.40;2.20;;;18.10;84.10;;;;;;5023922;28;20044;-74
2021/06/29 06:28:54;;;;;;;2.50;2.30;;;18.20;84.60;;;;;;5025211;28;20519;-74
2021/06/29 06:31:20;;;;;;;2.58;2.28;;;18.30;84.80;;;;;;5017691;28;20038;-74
2021/06/29 06:33:45;;;;;;;3.05;2.58;;;18.30;84.70;;;;;;5023680;28;20030;-74
2021/06/29 06:36:11;;;;;;;2.90;2.70;;;18.40;84.60;;;;;;5020074;28;20106;-74
2021/06/29 06:38:38;;;;;;;3.08;2.38;;;18.60;86.00;;;;;;5015117;28;20036;-73
2021/06/29 06:41:04;;;;;;;4.15;2.45;;;18.80;85.70;;;;;;5011768;28;20030;-74
2021/06/29 06:43:30;;;;;;;2.50;2.30;;;19.00;85.70;;;;;;5025318;28;20453;-74
2021/06/29 06:45:55;;;;;;;2.03;1.90;;;19.20;83.40;;;;;;5025651;28;20078;-74
2021/06/29 06:48:21;;;;;;;2.30;2.10;;;19.20;80.40;;;;;;5023698;28;20025;-74
2021/06/29 06:50:46;;;;;;;2.50;2.30;;;19.20;80.90;;;;;;5026846;28;20033;-74
2021/06/29 06:53:14;;;;;;;2.22;2.05;;;19.30;81.20;;;;;;5024752;28;20082;-74
2021/06/29 06:55:40;;;;;;;2.37;2.17;;;19.30;81.60;;;;;;5020241;28;20673;-74
2021/06/29 06:58:05;;;;;;;2.40;2.20;;;19.20;83.30;;;;;;5018886;28;20506;-74
2021/06/29 07:00:31;;;;;;;2.10;1.90;;;19.10;83.80;;;;;;5021974;28;20175;-74
2021/06/29 07:02:57;;;;;;;1.90;1.80;;;19.10;83.00;;;;;;5020962;28;20053;-74
2021/06/29 07:05:23;;;;;;;2.50;2.30;;;19.10;80.90;;;;;;5026504;28;20029;-74
2021/06/29 07:07:49;;;;;;;2.70;1.98;;;19.10;82.40;;;;;;5024736;28;20036;-74
2021/06/29 07:10:15;;;;;;;2.80;1.90;;;19.20;82.60;;;;;;5014400;28;20033;-73
2021/06/29 07:12:41;;;;;;;2.08;1.85;;;19.20;79.50;;;;;;5011893;28;20048;-74
2021/06/29 07:15:07;;;;;;;2.47;1.73;;;19.30;80.80;;;;;;5015328;28;20472;-74
2021/06/29 07:17:35;;;;;;;3.45;2.00;;;19.40;81.90;;;;;;5019535;28;20099;-74
2021/06/29 07:20:00;;;;;;;2.55;2.05;;;19.40;82.00;;;;;;5027424;28;20374;-74
2021/06/29 07:22:26;;;;;;;2.50;1.98;;;19.50;81.90;;;;;;5016305;28;20033;-74
2021/06/29 07:24:52;;;;;;;2.20;2.00;;;19.50;80.30;;;;;;5022701;28;20040;-74
2021/06/29 07:27:18;;;;;;;2.13;1.90;;;19.40;80.90;;;;;;5016231;28;20057;-74
2021/06/29 07:29:43;;;;;;;2.45;2.25;;;19.50;81.60;;;;;;5017990;28;20788;-74
2021/06/29 07:32:09;;;;;;;2.80;2.60;;;19.70;82.60;;;;;;5016614;28;20033;-75
2021/06/29 07:34:35;;;;;;;5.13;2.33;;;19.80;82.20;;;;;;5020748;28;20060;-74
2021/06/29 07:37:01;;;;;;;2.20;2.00;;;20.00;83.20;;;;;;5015298;28;20226;-74
2021/06/29 07:39:26;;;;;;;2.05;1.95;;;20.10;80.20;;;;;;5023782;28;20083;-74
2021/06/29 07:41:52;;;;;;;2.67;2.17;;;20.20;80.50;;;;;;5016956;28;20048;-74
2021/06/29 07:44:17;;;;;;;1.90;1.80;;;20.40;79.90;;;;;;5014411;28;20034;-75
2021/06/29 07:46:43;;;;;;;2.05;1.80;;;20.50;78.40;;;;;;5021021;28;20025;-74
2021/06/29 07:49:09;;;;;;;2.45;2.08;;;20.60;77.30;;;;;;5015711;28;20561;-74
2021/06/29 07:51:35;;;;;;;1.70;1.60;;;20.70;76.90;;;;;;5015177;28;20029;-74
2021/06/29 07:54:00;;;;;;;3.13;2.13;;;20.80;78.20;;;;;;5014119;28;21259;-75
2021/06/29 07:56:27;;;;;;;2.00;1.77;;;20.90;78.90;;;;;;5026432;28;20566;-74
2021/06/29 07:58:53;;;;;;;2.20;2.00;;;21.00;75.20;;;;;;5023150;28;20096;-74
2021/06/29 08:01:19;;;;;;;3.92;1.90;;;21.20;75.30;;;;;;5024709;28;20037;-75
2021/06/29 08:03:45;;;;;;;2.00;1.90;;;21.20;73.50;;;;;;5024952;28;20079;-76
2021/06/29 08:06:12;;;;;;;1.95;1.85;;;21.30;74.40;;;;;;5022220;28;20035;-76
2021/06/29 08:08:38;;;;;;;2.05;1.75;;;21.30;71.60;;;;;;5023823;28;20050;-76
2021/06/29 08:11:08;;;;;;;2.00;1.85;;;21.40;72.90;;;;;;5028025;28;20061;-75
2021/06/29 08:13:36;;;;;;;4.65;1.70;;;21.40;73.70;;;;;;5016987;28;20053;-77
2021/06/29 08:16:02;;;;;;;1.90;1.80;;;21.50;72.90;;;;;;5032631;28;20041;-75
2021/06/29 08:18:28;;;;;;;6.57;1.77;;;21.70;72.30;;;;;;5045861;28;20029;-75
2021/06/29 08:20:55;;;;;;;1.48;1.38;;;21.80;70.30;;;;;;5046691;28;20469;-75
2021/06/29 08:23:22;;;;;;;1.40;1.27;;;21.90;70.50;;;;;;5053947;28;20166;-75
2021/06/29 08:25:47;;;;;;;1.60;1.50;;;22.00;68.70;;;;;;5052906;28;20524;-76
2021/06/29 08:28:13;;;;;;;1.40;1.30;;;22.10;66.80;;;;;;5046679;28;20044;-75
2021/06/29 08:30:40;;;;;;;1.20;1.20;;;22.10;66.90;;;;;;5052079;28;20114;-76
2021/06/29 08:33:10;;;;;;;1.35;1.25;;;22.20;66.20;;;;;;5043429;28;20025;-76
2021/06/29 08:35:37;;;;;;;1.33;1.25;;;22.20;64.10;;;;;;5035276;28;20028;-76
2021/06/29 08:38:02;;;;;;;1.08;1.08;;;22.30;65.90;;;;;;5034524;28;20065;-75
2021/06/29 08:40:28;;;;;;;1.40;1.30;;;22.40;66.40;;;;;;5040546;28;20049;-76
2021/06/29 08:42:54;;;;;;;6.68;1.30;;;22.50;63.90;;;;;;5046718;28;20028;-76
2021/06/29 08:45:20;;;;;;;1.30;1.23;;;22.60;64.70;;;;;;5051624;28;20028;-75
2021/06/29 08:47:45;;;;;;;1.30;1.20;;;22.70;63.80;;;;;;5047712;28;20029;-76
2021/06/29 08:50:16;;;;;;;2.20;1.30;;;22.80;63.70;;;;;;5050238;28;20028;-75
2021/06/29 08:52:41;;;;;;;1.10;1.10;;;23.00;63.30;;;;;;5046229;28;20024;-76
2021/06/29 08:55:09;;;;;;;1.23;1.23;;;23.00;63.30;;;;;;5047753;28;20400;-76
2021/06/29 08:57:35;;;;;;;1.30;1.20;;;23.10;61.90;;;;;;5038409;28;20031;-76
2021/06/29 09:00:03;;;;;;;3.20;1.48;;;23.10;59.80;;;;;;5044024;28;20131;-76
2021/06/29 09:02:29;;;;;;;1.27;1.20;;;23.10;61.40;;;;;;5045692;28;20033;-76
2021/06/29 09:04:58;;;;;;;2.20;0.90;;;23.10;62.50;;;;;;5041948;28;20683;-76
2021/06/29 09:07:29;;;;;;;1.10;1.10;;;23.10;62.00;;;;;;5039769;28;20109;-75
2021/06/29 09:09:57;;;;;;;1.45;1.25;;;23.20;62.10;;;;;;5045422;28;20036;-75
2021/06/29 09:12:46;;;;;;;1.40;1.30;;;23.40;61.90;;;;;;5045401;28;20112;-75
2021/06/29 09:15:25;;;;;;;2.20;1.40;;;23.50;60.10;;;;;;5048365;28;20651;-75
2021/06/29 09:17:52;;;;;;;2.22;1.20;;;23.70;62.10;;;;;;5044227;28;20120;-75
2021/06/29 09:20:31;;;;;;;1.65;1.20;;;23.70;61.70;;;;;;5046655;28;20515;-75
2021/06/29 09:23:06;;;;;;;2.63;1.35;;;23.90;60.10;;;;;;5046012;28;20530;-75
2021/06/29 09:25:32;;;;;;;2.40;1.10;;;24.00;60.00;;;;;;5047709;28;20021;-76
2021/06/29 09:27:58;;;;;;;1.23;1.10;;;24.00;58.30;;;;;;5040628;28;20017;-76
2021/06/29 09:30:26;;;;;;;1.10;1.10;;;23.90;57.40;;;;;;5040936;28;20021;-76
2021/06/29 09:32:53;;;;;;;1.08;1.08;;;24.00;60.00;;;;;;5045346;28;20017;-75
2021/06/29 09:35:19;;;;;;;1.17;1.10;;;24.00;56.90;;;;;;5048067;28;20089;-76
2021/06/29 09:37:48;;;;;;;1.42;1.33;;;24.10;56.80;;;;;;5041730;28;20037;-76
2021/06/29 09:40:15;;;;;;;1.20;1.20;;;23.90;60.80;;;;;;5034236;28;20025;-75
2021/06/29 09:42:41;;;;;;;2.13;1.20;;;24.10;60.40;;;;;;5040393;28;20029;-75
2021/06/29 09:45:41;;;;;;;1.30;1.30;;;24.20;61.30;;;;;;5042592;28;20113;-76
2021/06/29 09:48:10;;;;;;;1.20;1.20;;;24.30;58.50;;;;;;5050205;28;20029;-75
2021/06/29 09:50:50;;;;;;;1.33;1.23;;;24.30;59.90;;;;;;5047701;28;20025;-76
2021/06/29 09:53:23;;;;;;;1.83;1.13;;;24.30;58.90;;;;;;5050174;28;20081;-76
2021/06/29 09:56:00;;;;;;;1.92;1.40;;;24.10;57.40;;;;;;5049887;28;20605;-75
2021/06/29 09:58:27;;;;;;;1.20;1.20;;;24.00;57.50;;;;;;5041216;28;20025;-75
2021/06/29 10:00:58;;;;;;;1.38;1.27;;;24.00;58.90;;;;;;5057628;28;20090;-76
2021/06/29 10:03:34;;;;;;;1.50;1.40;;;24.00;59.40;;;;;;5046296;28;20488;-75
2021/06/29 10:06:07;;;;;;;2.22;1.20;;;24.10;58.70;;;;;;5056001;28;20483;-76
2021/06/29 10:08:34;;;;;;;2.38;1.67;;;24.20;57.90;;;;;;5041929;28;20067;-74
2021/06/29 10:11:26;;;;;;;1.40;1.30;;;24.20;57.50;;;;;;5053187;28;20021;-76
2021/06/29 10:13:54;;;;;;;1.13;1.10;;;24.30;57.20;;;;;;5052162;28;20060;-76
2021/06/29 10:16:23;;;;;;;1.42;1.33;;;24.40;53.30;;;;;;5045373;28;20410;-76
2021/06/29 10:19:03;;;;;;;1.42;1.30;;;24.40;58.30;;;;;;5040690;28;20394;-76
2021/06/29 10:21:31;;;;;;;1.17;1.17;;;24.30;53.20;;;;;;5050021;28;20111;-76
2021/06/29 10:24:00;;;;;;;1.02;1.02;;;24.30;56.80;;;;;;5044456;28;20495;-75
2021/06/29 10:26:27;;;;;;;2.28;1.13;;;24.40;54.20;;;;;;5048416;28;20025;-74
2021/06/29 10:28:54;;;;;;;1.15;1.15;;;24.50;50.50;;;;;;5048502;28;20060;-75
2021/06/29 10:31:25;;;;;;;1.30;1.20;;;24.50;53.50;;;;;;5042129;28;20044;-75
2021/06/29 10:33:53;;;;;;;2.17;1.05;;;24.50;54.20;;;;;;5049377;28;20202;-76
2021/06/29 10:36:20;;;;;;;1.15;1.10;;;24.50;50.20;;;;;;5055546;28;20025;-76
2021/06/29 10:38:47;;;;;;;1.85;1.48;;;24.60;54.80;;;;;;5055060;28;20036;-76
2021/06/29 10:41:14;;;;;;;1.15;1.05;;;24.80;53.40;;;;;;5059435;28;20487;-75
2021/06/29 10:43:41;;;;;;;1.00;1.00;;;24.80;50.70;;;;;;5054683;28;20059;-76
2021/06/29 10:46:28;;;;;;;1.55;1.20;;;24.80;53.80;;;;;;5048789;28;20582;-74
2021/06/29 10:48:54;;;;;;;1.00;0.90;;;24.70;50.90;;;;;;5049702;28;20642;-75
2021/06/29 10:51:37;;;;;;;1.00;1.00;;;24.70;56.40;;;;;;5049339;28;20096;-75
2021/06/29 10:54:03;;;;;;;1.30;1.20;;;24.70;56.60;;;;;;5049715;28;20028;-75
2021/06/29 10:56:55;;;;;;;1.30;1.20;;;24.70;54.00;;;;;;5043419;28;20436;-76
2021/06/29 10:59:34;;;;;;;1.05;1.05;;;24.80;54.80;;;;;;5040239;28;20056;-76
2021/06/29 11:02:00;;;;;;;1.05;1.05;;;24.60;55.00;;;;;;5052369;28;20086;-75
2021/06/29 11:04:51;;;;;;;1.08;1.08;;;24.60;53.90;;;;;;5050118;28;20021;-75
2021/06/29 11:07:25;;;;;;;1.10;1.10;;;24.70;52.50;;;;;;5051305;28;20096;-75
2021/06/29 11:09:58;;;;;;;1.75;1.40;;;24.60;54.50;;;;;;5045445;28;20499;-74
2021/06/29 11:12:39;;;;;;;1.17;1.05;;;24.70;52.80;;;;;;5051551;28;20075;-75
2021/06/29 11:15:07;;;;;;;1.48;1.38;;;24.70;53.30;;;;;;5049780;28;20036;-75
2021/06/29 11:18:01;;;;;;;1.27;1.17;;;24.70;54.60;;;;;;5053179;28;20040;-75
2021/06/29 11:20:50;;;;;;;2.15;1.20;;;24.80;52.80;;;;;;5047022;28;20037;-75
2021/06/29 11:23:19;;;;;;;2.25;1.40;;;24.70;50.00;;;;;;5048901;28;20028;-76
2021/06/29 11:25:46;;;;;;;1.33;1.23;;;24.70;55.60;;;;;;5051051;28;20535;-75
2021/06/29 11:28:30;;;;;;;1.27;1.17;;;24.80;55.00;;;;;;5049267;28;20496;-76
2021/06/29 11:31:04;;;;;;;5.47;1.23;;;24.80;53.40;;;;;;5047674;28;20032;-75
2021/06/29 11:33:53;;;;;;;3.15;1.20;;;24.80;51.20;;;;;;5046466;28;20055;-76
2021/06/29 11:36:37;;;;;;;1.30;1.20;;;24.70;51.40;;;;;;5051042;28;20036;-75
2021/06/29 11:39:18;;;;;;;1.05;1.00;;;24.80;52.60;;;;;;5042664;28;20108;-76
2021/06/29 11:42:11;;;;;;;1.15;1.10;;;24.80;53.90;;;;;;5048147;28;20025;-76
2021/06/29 11:44:46;;;;;;;2.38;1.58;;;24.80;54.70;;;;;;5045373;28;20095;-76
2021/06/29 11:47:17;;;;;;;0.85;0.80;;;24.80;50.90;;;;;;5045505;28;20503;-76
2021/06/29 11:49:57;;;;;;;1.65;0.90;;;24.70;48.60;;;;;;5054881;28;20072;-76
2021/06/29 11:52:28;;;;;;;1.00;1.00;;;24.70;50.40;;;;;;5051353;28;21796;-75
2021/06/29 11:55:04;;;;;;;1.30;1.20;;;24.70;53.10;;;;;;5051203;28;20569;-76
2021/06/29 11:57:35;;;;;;;1.20;1.05;;;24.60;51.00;;;;;;5045238;28;20056;-76
2021/06/29 12:00:22;;;;;;;1.02;1.00;;;24.60;49.00;;;;;;5049996;28;21548;-74
2021/06/29 12:02:50;;;;;;;1.27;1.00;;;24.60;50.00;;;;;;5050962;28;20041;-76
2021/06/29 12:05:21;;;;;;;1.30;1.20;;;24.70;50.10;;;;;;5048333;28;20021;-76
2021/06/29 12:07:51;;;;;;;1.48;1.10;;;24.60;52.50;;;;;;5040908;28;20035;-75
2021/06/29 12:10:22;;;;;;;1.17;1.13;;;24.60;51.00;;;;;;5051181;28;20500;-75
2021/06/29 12:12:54;;;;;;;1.02;1.02;;;24.60;53.90;;;;;;5039166;28;20083;-75
2021/06/29 12:15:22;;;;;;;1.38;1.27;;;24.60;50.00;;;;;;5051678;28;20083;-76
2021/06/29 12:17:49;;;;;;;1.50;1.40;;;24.60;53.80;;;;;;5041692;28;20461;-75
2021/06/29 12:20:17;;;;;;;1.27;1.17;;;24.60;56.90;;;;;;5047942;28;20039;-76
2021/06/29 12:22:44;;;;;;;1.23;1.13;;;24.70;56.40;;;;;;5048333;28;20456;-76
2021/06/29 12:25:25;;;;;;;1.25;1.20;;;24.70;49.80;;;;;;5043021;28;20028;-75
2021/06/29 12:27:54;;;;;;;1.00;1.00;;;24.70;48.30;;;;;;5040818;28;20032;-75
2021/06/29 12:30:36;;;;;;;1.00;1.00;;;24.70;49.50;;;;;;5045953;28;20500;-76
2021/06/29 12:33:12;;;;;;;1.40;1.20;;;24.80;50.60;;;;;;5041938;28;20026;-75
2021/06/29 12:35:38;;;;;;;1.20;1.17;;;24.90;55.60;;;;;;5048280;28;20036;-76
2021/06/29 12:38:08;;;;;;;1.30;1.20;;;25.00;54.40;;;;;;5051300;28;20021;-76
2021/06/29 12:40:34;;;;;;;1.23;1.15;;;24.80;51.10;;;;;;5047512;28;20108;-76
2021/06/29 12:43:15;;;;;;;1.10;1.10;;;24.80;49.30;;;;;;5050470;28;20029;-75
2021/06/29 12:45:41;;;;;;;2.20;1.30;;;24.80;54.90;;;;;;5053622;28;20035;-76
2021/06/29 12:48:08;;;;;;;3.10;1.60;;;24.90;54.90;;;;;;5048729;28;20033;-75
2021/06/29 12:50:35;;;;;;;1.48;1.30;;;24.90;54.40;;;;;;5043686;28;20016;-75
2021/06/29 12:53:01;;;;;;;1.48;1.33;;;24.90;54.70;;;;;;5052859;28;20025;-75